Flight Track Log - Related Links

Times and Time Zones

All times are in EDT time to prevent confusion due to time zone crossing. See the N700QA flight status page for this flight to view local times or setup timezone preferences in your user account.

Time Position Orientation Groundspeed Altitude Reporting Facility
EDT Latitude Longitude Course Direction KTS MPH feet Rate Location/Type
Sun 09:16:20 PM 36.0750 -115.1925 261° West 184 212 3,800  Level Los Angeles Center
Sun 09:17:12 PM 36.0689 -115.2414 261° West 205 236 5,500 2,105 Climbing Los Angeles Center
Sun 09:18:14 PM 36.0094 -115.2736 204° Southwest 237 273 7,800 2,098 Climbing Los Angeles Center
Sun 09:19:15 PM 35.9389 -115.2800 184° South 245 282 9,800 2,341 Climbing Los Angeles Center
Sun 09:20:17 PM 35.8464 -115.2828 181° South 264 304 12,600 2,419 Climbing Los Angeles Center
Sun 09:21:19 PM 35.7672 -115.2861 182° South 274 315 14,800 1,935 Climbing Los Angeles Center
Sun 09:22:21 PM 35.6842 -115.2922 183° South 285 328 16,600 1,805 Climbing Los Angeles Center
Sun 09:23:22 PM 35.6194 -115.3706 225° Southwest 315 362 18,500 1,854 Climbing Los Angeles Center
Sun 09:24:24 PM 35.5567 -115.4514 226° Southwest 321 369 20,400 1,412 Climbing Los Angeles Center
Sun 09:25:38 PM 35.4972 -115.5361 229° Southwest 325 374 21,700 1,103 Climbing Los Angeles Center
Sun 09:26:40 PM 35.4214 -115.6381 228° Southwest 338 389 22,900 1,171 Climbing Los Angeles Center
Sun 09:27:41 PM 35.3544 -115.7269 227° Southwest 352 405 24,100 1,171 Climbing Los Angeles Center
Sun 09:28:43 PM 35.2736 -115.8336 227° Southwest 355 409 25,300 919 Climbing Los Angeles Center
Sun 09:29:45 PM 35.2025 -115.9269 227° Southwest 370 426 26,000 390 Climbing Los Angeles Center
Sun 09:30:46 PM 35.1306 -116.0239 228° Southwest 381 438 26,100 49 Climbing Los Angeles Center
Sun 09:31:48 PM 35.0528 -116.1256 227° Southwest 400 460 26,100  Level Los Angeles Center
Sun 09:32:50 PM 34.9694 -116.2242 224° Southwest 410 472 26,100  Level Los Angeles Center
Sun 09:33:51 PM 34.8772 -116.3133 218° Southwest 418 481 26,100  Level Los Angeles Center
Sun 09:34:53 PM 34.7883 -116.4064 221° Southwest 419 482 26,100  Level Los Angeles Center
Sun 09:35:54 PM 34.6983 -116.4981 220° Southwest 421 484 26,100 -146 Level Los Angeles Center
Sun 09:36:56 PM 34.5889 -116.6108 220° Southwest 427 491 25,800 -919 Descending Los Angeles Center
Sun 09:37:58 PM 34.4981 -116.7039 220° Southwest 428 493 24,200 -1,610 Descending Los Angeles Center
Sun 09:38:59 PM 34.4094 -116.7953 220° Southwest 419 482 22,500 -1,561 Descending Los Angeles Center
Sun 09:40:01 PM 34.3228 -116.8839 220° Southwest 409 471 21,000 -1,147 Descending Los Angeles Center
Sun 09:41:15 PM 34.2344 -116.9717 219° Southwest 409 471 19,900 -882 Descending Los Angeles Center
Sun 09:42:17 PM 34.1492 -117.0936 230° Southwest 394 453 19,000 -1,080 Descending Los Angeles Center
Sun 09:42:55 PM 34.1167 -117.1833 246° West 376 433 18,100 -1,500 Descending Southern California TRACON
Sun 09:43:49 PM 34.0833 -117.2833 248° West 376 433 16,700 -1,835 Descending Southern California TRACON
Sun 09:44:56 PM 34.0500 -117.4167 253° West 353 406 14,400 -2,079 Descending Southern California TRACON
Sun 09:45:56 PM 34.0333 -117.5333 260° West 314 361 12,300 -2,000 Descending Southern California TRACON
Sun 09:46:56 PM 34.0167 -117.6333 259° West 390 449 10,400 -1,056 Descending Southern California TRACON
Sun 09:48:01 PM 34.0000 -117.7333 259° West 270 311 10,100 -350 Descending Southern California TRACON
Sun 09:48:56 PM 34.0000 -117.8167 270° West 298 343 9,700 -1,190 Descending Southern California TRACON
Sun 09:50:02 PM 33.9833 -117.9333 260° West 302 348 7,700 -1,714 Descending Southern California TRACON
Sun 09:51:02 PM 33.9667 -118.0333 259° West 263 303 6,100 -1,500 Descending Southern California TRACON
Sun 09:52:02 PM 33.9667 -118.1000 270° West 218 251 4,700 -1,187 Descending Southern California TRACON
Sun 09:52:33 PM 33.9636 -118.1397 265° West 242 278 4,300 -1,032 Descending Los Angeles Center
Sun 09:53:35 PM 33.9547 -118.2092 261° West 223 257 3,100 -1,113 Descending Los Angeles Center
Sun 09:54:37 PM 33.9478 -118.2761 263° West 213 245 2,000 -1,024 Descending Los Angeles Center
Sun 09:55:38 PM 33.9417 -118.3333 263° West 192 221 1,000 -927 Descending Los Angeles Center
Sun 09:56:40 PM 33.9472 -118.3892 277° West 203 234 100 -871 Descending Los Angeles Center
Sun 09:58:00 PM 33.9333 -118.4000 259° West  Level FlightAware Approximate

Login

Don't have an account? Register now (free) for customized features, flight alerts, and more!